createdAt,value
2022-10-17T00:01:20.871Z,10.70
2022-10-17T00:06:48.928Z,10.70
2022-10-17T00:12:15.563Z,10.70
2022-10-17T00:20:17.355Z,10.70
2022-10-17T00:38:03.523Z,10.70
2022-10-17T00:52:11.546Z,10.60
2022-10-17T00:54:51.773Z,10.50
2022-10-17T00:57:31.785Z,10.50
2022-10-17T01:00:07.476Z,10.40
2022-10-17T01:02:35.916Z,10.40
2022-10-17T01:05:04.603Z,10.40
2022-10-17T01:07:37.311Z,10.40
2022-10-17T01:10:07.154Z,10.30
2022-10-17T01:12:59.910Z,10.30
2022-10-17T01:15:48.808Z,10.20
2022-10-17T01:18:51.231Z,10.20
2022-10-17T01:21:31.394Z,10.20
2022-10-17T01:34:31.212Z,10.00
2022-10-17T01:49:49.839Z,9.90
2022-10-17T01:52:25.440Z,9.80
2022-10-17T01:55:03.444Z,9.80
2022-10-17T01:57:38.771Z,9.70
2022-10-17T02:00:14.023Z,9.70
2022-10-17T02:02:44.213Z,9.70
2022-10-17T02:05:11.742Z,9.60
2022-10-17T02:07:41.132Z,9.70
2022-10-17T02:10:19.968Z,9.70
2022-10-17T02:12:55.172Z,9.70
2022-10-17T02:15:40.728Z,9.60
2022-10-17T02:18:38.662Z,9.70
2022-10-17T02:40:46.301Z,9.60
2022-10-17T02:43:15.785Z,9.60
2022-10-17T02:55:36.829Z,9.60
2022-10-17T02:58:11.396Z,9.60
2022-10-17T03:29:36.368Z,9.20
2022-10-17T03:32:07.657Z,9.10
2022-10-17T03:34:36.603Z,9.10
2022-10-17T03:37:06.554Z,9.00
2022-10-17T03:39:34.934Z,9.00
2022-10-17T03:42:03.128Z,8.90
2022-10-17T03:44:34.032Z,8.90
2022-10-17T03:47:02.135Z,8.90
2022-10-17T03:49:37.664Z,8.90
2022-10-17T03:54:53.245Z,8.90
2022-10-17T03:57:22.154Z,8.90
2022-10-17T03:59:58.855Z,8.90
2022-10-17T04:02:31.460Z,8.90
2022-10-17T04:07:44.081Z,8.90
2022-10-17T04:10:18.040Z,8.90
2022-10-17T04:15:36.830Z,8.80
2022-10-17T04:18:13.913Z,8.80
2022-10-17T04:23:32.735Z,8.80
2022-10-17T04:31:39.895Z,8.90
2022-10-17T04:37:32.383Z,8.80
2022-10-17T04:40:00.655Z,8.90
2022-10-17T04:42:56.842Z,8.90
2022-10-17T04:54:09.243Z,8.70
2022-10-17T04:57:27.183Z,8.70
2022-10-17T05:32:22.760Z,8.50
2022-10-17T05:34:49.530Z,8.50
2022-10-17T05:37:16.300Z,8.50
2022-10-17T05:39:43.044Z,8.50
2022-10-17T05:42:09.874Z,8.40
2022-10-17T05:44:36.665Z,8.40
2022-10-17T05:47:03.406Z,8.40
2022-10-17T05:49:46.025Z,8.40
2022-10-17T05:52:16.734Z,8.50
2022-10-17T05:54:43.508Z,8.50
2022-10-17T05:57:10.292Z,8.50
2022-10-17T05:59:37.044Z,8.50
2022-10-17T06:02:03.911Z,8.50
2022-10-17T06:04:30.755Z,8.50
2022-10-17T06:06:57.604Z,8.50
2022-10-17T06:09:24.829Z,8.60
2022-10-17T06:11:51.583Z,8.60
2022-10-17T06:14:18.460Z,8.60
2022-10-17T06:16:45.319Z,8.60
2022-10-17T06:19:12.125Z,8.60
2022-10-17T06:21:39.063Z,8.60
2022-10-17T06:24:06.129Z,8.60
2022-10-17T06:26:33.331Z,8.60
2022-10-17T06:29:00.204Z,8.60
2022-10-17T06:31:27.057Z,8.70
2022-10-17T06:33:53.845Z,8.70
2022-10-17T06:36:20.701Z,8.80
2022-10-17T06:38:47.483Z,8.80
2022-10-17T06:41:16.241Z,8.90
2022-10-17T06:43:46.398Z,8.90
2022-10-17T06:46:14.910Z,8.90
2022-10-17T06:48:42.087Z,9.00
2022-10-17T06:51:12.197Z,9.10
2022-10-17T06:53:40.323Z,9.10
2022-10-17T06:56:08.668Z,9.10
2022-10-17T06:58:39.152Z,9.20
2022-10-17T07:03:35.471Z,9.30
2022-10-17T07:06:02.708Z,9.40
2022-10-17T07:08:29.836Z,9.50
2022-10-17T07:10:56.863Z,9.50
2022-10-17T07:13:24.194Z,9.50
2022-10-17T07:15:51.152Z,9.60
2022-10-17T07:18:17.973Z,9.70
2022-10-17T07:20:52.281Z,9.70
2022-10-17T07:23:19.094Z,9.80
2022-10-17T07:25:45.960Z,9.80
2022-10-17T07:28:13.804Z,9.90
2022-10-17T07:30:40.728Z,9.90
2022-10-17T07:33:07.549Z,10.00
2022-10-17T07:35:34.681Z,10.10
2022-10-17T07:38:01.436Z,10.20
2022-10-17T07:40:28.219Z,10.20
2022-10-17T07:42:56.420Z,10.30
2022-10-17T07:45:23.981Z,10.40
2022-10-17T07:47:50.732Z,10.50
2022-10-17T07:50:17.516Z,10.60
2022-10-17T07:52:44.333Z,10.60
2022-10-17T07:55:11.176Z,10.90
2022-10-17T07:57:37.979Z,11.00
2022-10-17T08:00:05.541Z,11.10
2022-10-17T08:02:32.712Z,11.20
2022-10-17T08:04:59.696Z,11.30
2022-10-17T08:07:29.353Z,11.40
2022-10-17T08:09:56.491Z,11.60
2022-10-17T08:12:24.320Z,11.70
2022-10-17T08:14:51.104Z,11.80
2022-10-17T08:17:17.875Z,11.90
2022-10-17T08:19:44.692Z,11.90
2022-10-17T08:22:11.456Z,12.00
2022-10-17T08:24:38.302Z,12.10
2022-10-17T08:27:11.400Z,12.10
2022-10-17T08:29:39.421Z,12.20
2022-10-17T08:32:09.611Z,12.30
2022-10-17T08:34:36.687Z,12.30
2022-10-17T08:37:03.610Z,12.40
2022-10-17T08:39:30.455Z,12.50
2022-10-17T08:42:31.640Z,12.60
2022-10-17T08:45:17.120Z,12.70
2022-10-17T08:47:47.450Z,12.90
2022-10-17T08:50:34.525Z,13.00
2022-10-17T08:53:09.001Z,13.10
2022-10-17T08:55:45.480Z,13.30
2022-10-17T08:58:26.236Z,13.40
2022-10-17T09:00:59.256Z,13.60
2022-10-17T09:03:34.947Z,13.60
2022-10-17T09:06:25.248Z,13.80
2022-10-17T09:09:39.607Z,13.90
2022-10-17T09:12:40.431Z,14.10
2022-10-17T09:15:37.921Z,14.40
2022-10-17T09:18:19.890Z,14.50
2022-10-17T09:21:08.375Z,14.70
2022-10-17T09:24:03.805Z,14.90
2022-10-17T09:26:39.049Z,14.90
2022-10-17T09:29:20.191Z,15.10
2022-10-17T09:32:17.470Z,15.30
2022-10-17T09:34:44.331Z,15.60
2022-10-17T09:37:16.647Z,15.80
2022-10-17T09:39:44.375Z,16.00
2022-10-17T09:42:15.819Z,16.30
2022-10-17T09:44:54.597Z,16.40
2022-10-17T09:47:57.541Z,16.50
2022-10-17T09:50:31.919Z,16.70
2022-10-17T09:53:20.311Z,16.80
2022-10-17T09:55:50.323Z,16.90
2022-10-17T09:58:17.235Z,17.10
2022-10-17T10:00:47.530Z,17.20
2022-10-17T10:03:22.895Z,17.30
2022-10-17T10:06:05.781Z,17.50
2022-10-17T10:08:49.643Z,17.70
2022-10-17T10:11:18.103Z,17.80
2022-10-17T10:13:47.362Z,17.90
2022-10-17T10:16:20.069Z,18.00
2022-10-17T10:18:50.150Z,18.10
2022-10-17T10:21:21.209Z,18.30
2022-10-17T10:24:03.064Z,18.30
2022-10-17T10:26:39.407Z,18.40
2022-10-17T10:29:31.300Z,18.50
2022-10-17T10:32:25.401Z,18.60
2022-10-17T10:35:16.218Z,18.70
2022-10-17T10:37:46.618Z,18.90
2022-10-17T10:40:22.537Z,19.10
2022-10-17T10:42:51.719Z,19.10
2022-10-17T10:45:46.476Z,19.10
2022-10-17T10:48:23.691Z,19.30
2022-10-17T10:53:43.029Z,19.40
2022-10-17T10:56:17.162Z,19.60
2022-10-17T10:58:55.099Z,19.70
2022-10-17T11:01:57.118Z,19.90
2022-10-17T11:04:39.918Z,20.20
2022-10-17T11:07:22.820Z,20.30
2022-10-17T11:10:04.313Z,20.40
2022-10-17T11:12:52.099Z,20.50
2022-10-17T11:15:42.868Z,20.50
2022-10-17T11:18:35.440Z,20.60
2022-10-17T11:21:17.322Z,20.70
2022-10-17T11:24:12.708Z,20.80
2022-10-17T11:26:54.016Z,21.00
2022-10-17T11:29:22.500Z,20.90
2022-10-17T11:31:54.141Z,21.00
2022-10-17T11:34:24.192Z,21.10
2022-10-17T11:37:05.433Z,21.30
2022-10-17T11:39:41.167Z,21.30
2022-10-17T11:42:21.912Z,21.40
2022-10-17T11:45:03.057Z,21.40
2022-10-17T11:47:49.460Z,21.40
2022-10-17T11:53:22.465Z,21.50
2022-10-17T11:55:52.351Z,21.60
2022-10-17T11:59:03.315Z,21.60
2022-10-17T12:01:47.918Z,21.70
2022-10-17T12:04:49.250Z,21.90
2022-10-17T12:07:54.513Z,21.90
2022-10-17T12:10:46.259Z,22.00
2022-10-17T12:13:28.006Z,22.10
2022-10-17T12:16:18.643Z,22.10
2022-10-17T12:18:46.731Z,22.00
2022-10-17T12:21:13.898Z,22.00
2022-10-17T12:23:43.453Z,22.00
2022-10-17T12:26:10.896Z,22.00
2022-10-17T12:28:37.670Z,22.00
2022-10-17T12:31:33.897Z,22.10
2022-10-17T12:34:03.204Z,22.10
2022-10-17T12:36:34.739Z,22.20
2022-10-17T12:39:03.150Z,22.30
2022-10-17T12:41:38.684Z,22.30
2022-10-17T12:44:14.412Z,22.40
2022-10-17T12:46:59.670Z,22.60
2022-10-17T12:49:44.080Z,22.60
2022-10-17T12:52:22.685Z,22.70
2022-10-17T12:55:12.239Z,22.80
2022-10-17T12:58:02.552Z,22.80
2022-10-17T13:01:11.540Z,22.80
2022-10-17T13:03:46.739Z,22.60
2022-10-17T13:06:24.822Z,22.60
2022-10-17T13:09:05.654Z,22.50
2022-10-17T13:11:34.760Z,22.40
2022-10-17T13:14:09.233Z,22.30
2022-10-17T13:16:38.049Z,22.30
2022-10-17T13:19:16.563Z,22.20
2022-10-17T13:21:56.268Z,22.10
2022-10-17T13:24:31.878Z,22.00
2022-10-17T13:26:59.653Z,21.90
2022-10-17T13:29:28.708Z,21.80
2022-10-17T13:32:04.747Z,21.80
2022-10-17T13:34:33.782Z,21.90
2022-10-17T13:37:03.339Z,21.90
2022-10-17T13:42:29.512Z,21.80
2022-10-17T13:44:58.439Z,21.90
2022-10-17T13:47:28.751Z,21.90
2022-10-17T13:49:56.710Z,21.90
2022-10-17T13:52:29.641Z,21.90
2022-10-17T13:55:18.778Z,21.80
2022-10-17T13:57:45.770Z,21.80
2022-10-17T14:00:23.091Z,21.80
2022-10-17T14:02:49.898Z,21.80
2022-10-17T14:05:19.931Z,21.80
2022-10-17T14:08:11.892Z,21.80
2022-10-17T14:10:40.000Z,21.80
2022-10-17T14:13:15.209Z,21.80
2022-10-17T14:15:46.250Z,21.80
2022-10-17T14:18:34.820Z,21.80
2022-10-17T14:23:53.343Z,21.80
2022-10-17T14:26:22.514Z,22.10
2022-10-17T14:29:11.512Z,22.10
2022-10-17T14:31:38.474Z,22.20
2022-10-17T14:34:07.407Z,22.20
2022-10-17T14:36:38.574Z,22.20
2022-10-17T14:39:13.283Z,22.20
2022-10-17T14:41:45.395Z,22.30
2022-10-17T14:44:23.627Z,22.30
2022-10-17T14:46:54.903Z,22.20
2022-10-17T14:49:36.834Z,22.20
2022-10-17T14:52:30.619Z,22.20
2022-10-17T14:55:07.741Z,22.10
2022-10-17T14:57:50.262Z,22.10
2022-10-17T15:00:22.710Z,21.90
2022-10-17T15:02:51.073Z,21.80
2022-10-17T15:05:19.461Z,21.70
2022-10-17T15:07:46.481Z,21.70
2022-10-17T15:10:37.062Z,21.60
2022-10-17T15:15:52.458Z,21.50
2022-10-17T15:18:19.643Z,21.40
2022-10-17T15:20:46.471Z,21.30
2022-10-17T15:23:13.254Z,21.20
2022-10-17T15:25:40.110Z,21.10
2022-10-17T15:28:06.965Z,20.90
2022-10-17T15:30:36.411Z,20.80
2022-10-17T15:33:03.341Z,20.70
2022-10-17T15:35:30.323Z,20.50
2022-10-17T15:37:57.145Z,20.40
2022-10-17T15:40:29.282Z,20.30
2022-10-17T15:42:56.562Z,20.20
2022-10-17T15:45:24.049Z,20.00
2022-10-17T15:48:05.394Z,19.90
2022-10-17T15:50:32.526Z,19.70
2022-10-17T15:53:00.108Z,19.50
2022-10-17T15:59:25.060Z,19.20
2022-10-17T16:01:51.981Z,19.00
2022-10-17T16:04:19.059Z,18.90
2022-10-17T16:06:46.000Z,18.70
2022-10-17T16:09:12.926Z,18.60
2022-10-17T16:11:42.473Z,18.50
2022-10-17T16:14:15.323Z,18.40
2022-10-17T16:16:42.256Z,18.30
2022-10-17T16:19:09.513Z,18.10
2022-10-17T16:21:39.987Z,18.00
2022-10-17T16:24:07.193Z,17.90
2022-10-17T16:26:34.015Z,17.80
2022-10-17T16:29:03.106Z,17.70
2022-10-17T16:31:39.599Z,17.60
2022-10-17T16:34:06.916Z,17.40
2022-10-17T16:36:47.123Z,17.30
2022-10-17T16:39:14.406Z,17.20
2022-10-17T16:41:41.359Z,17.10
2022-10-17T16:44:10.873Z,17.00
2022-10-17T16:46:58.704Z,16.90
2022-10-17T16:49:25.527Z,16.80
2022-10-17T16:54:27.832Z,16.60
2022-10-17T16:56:54.655Z,16.50
2022-10-17T16:59:21.512Z,16.40
2022-10-17T17:01:48.347Z,16.40
2022-10-17T17:04:15.384Z,16.30
2022-10-17T17:06:42.380Z,16.20
2022-10-17T17:09:09.896Z,16.10
2022-10-17T17:11:37.492Z,16.00
2022-10-17T17:14:05.546Z,15.90
2022-10-17T17:16:44.546Z,15.90
2022-10-17T17:19:29.631Z,15.80
2022-10-17T17:40:01.639Z,15.20
2022-10-17T17:42:28.467Z,15.20
2022-10-17T17:44:55.278Z,15.10
2022-10-17T17:47:22.042Z,15.00
2022-10-17T17:49:48.948Z,14.90
2022-10-17T17:52:15.736Z,14.90
2022-10-17T17:54:42.535Z,14.80
2022-10-17T17:57:09.315Z,14.80
2022-10-17T17:59:40.420Z,14.70
2022-10-17T18:02:08.891Z,14.70
2022-10-17T18:04:35.797Z,14.60
2022-10-17T18:07:49.417Z,14.60
2022-10-17T18:13:39.792Z,14.50
2022-10-17T18:16:17.037Z,14.40
2022-10-17T18:18:45.298Z,14.30
2022-10-17T18:21:13.474Z,14.30
2022-10-17T18:23:41.567Z,14.20
2022-10-17T18:41:28.383Z,14.00
2022-10-17T18:43:59.806Z,14.00
2022-10-17T18:46:29.191Z,13.90
2022-10-17T18:48:56.478Z,13.90
2022-10-17T18:51:24.692Z,13.80
2022-10-17T18:54:22.192Z,13.80
2022-10-17T18:56:54.407Z,13.70
2022-10-17T18:59:21.424Z,13.70
2022-10-17T19:46:34.057Z,12.80
2022-10-17T19:49:01.646Z,12.70
2022-10-17T19:51:29.350Z,12.70
2022-10-17T19:54:00.245Z,12.70
2022-10-17T19:56:28.841Z,12.70
2022-10-17T19:58:57.050Z,12.70
2022-10-17T20:01:26.472Z,12.80
2022-10-17T20:03:54.228Z,12.70
2022-10-17T20:06:21.392Z,12.80
2022-10-17T20:08:48.971Z,12.70
2022-10-17T20:11:21.840Z,12.70
2022-10-17T20:13:49.106Z,12.70
2022-10-17T20:16:22.631Z,12.60
2022-10-17T20:18:54.809Z,12.60
2022-10-17T20:21:27.739Z,12.60
2022-10-17T20:23:54.983Z,12.50
2022-10-17T20:26:36.627Z,12.50
2022-10-17T20:29:08.945Z,12.50
2022-10-17T20:31:36.117Z,12.40
2022-10-17T20:34:03.582Z,12.30
2022-10-17T20:36:30.716Z,12.30
2022-10-17T20:38:59.177Z,12.20
2022-10-17T20:41:27.224Z,12.20
2022-10-17T20:43:55.466Z,12.10
2022-10-17T20:46:35.808Z,12.10
2022-10-17T20:49:05.738Z,12.00
2022-10-17T20:51:33.153Z,12.00
2022-10-17T20:53:59.961Z,12.10
2022-10-17T20:56:31.829Z,12.00
2022-10-17T20:59:00.734Z,12.00
2022-10-17T21:01:28.648Z,11.90
2022-10-17T21:03:58.264Z,11.90
2022-10-17T21:06:27.457Z,12.00
2022-10-17T21:08:55.318Z,12.00
2022-10-17T21:11:24.721Z,12.00
2022-10-17T21:14:00.276Z,12.00
2022-10-17T21:16:27.996Z,12.00
2022-10-17T21:18:55.868Z,11.90
2022-10-17T21:21:26.816Z,11.90
2022-10-17T21:23:55.726Z,11.90
2022-10-17T21:26:22.580Z,11.80
2022-10-17T21:28:49.817Z,11.80
2022-10-17T21:31:19.417Z,11.80
2022-10-17T21:33:48.700Z,11.80
2022-10-17T21:36:16.859Z,11.70
2022-10-17T21:38:48.430Z,11.70
2022-10-17T21:41:17.454Z,11.70
2022-10-17T21:43:44.251Z,11.60
2022-10-17T21:46:16.562Z,11.60
2022-10-17T21:48:44.040Z,11.60
2022-10-17T21:51:16.727Z,11.60
2022-10-17T21:53:44.235Z,11.50
2022-10-17T21:56:14.249Z,11.50
2022-10-17T21:58:41.222Z,11.50
2022-10-17T22:01:17.049Z,11.40
2022-10-17T22:03:47.081Z,11.40
2022-10-17T22:09:29.410Z,11.30
2022-10-17T22:11:57.244Z,11.30
2022-10-17T22:14:26.002Z,11.30
2022-10-17T22:16:53.356Z,11.30
2022-10-17T22:19:23.429Z,11.30
2022-10-17T22:21:50.914Z,11.20
2022-10-17T22:26:47.407Z,11.10
2022-10-17T22:29:14.857Z,11.10
2022-10-17T22:31:41.921Z,11.10
2022-10-17T22:34:11.026Z,11.10
2022-10-17T22:36:37.760Z,11.00
2022-10-17T22:39:05.190Z,11.00
2022-10-17T22:44:03.387Z,11.00
2022-10-17T22:46:32.558Z,11.00
2022-10-17T22:48:59.494Z,11.00
2022-10-17T22:51:29.481Z,10.90
2022-10-17T22:53:56.342Z,10.90
2022-10-17T22:56:23.623Z,10.90
2022-10-17T22:58:51.251Z,10.90
2022-10-17T23:01:21.014Z,10.90
2022-10-17T23:03:48.509Z,10.80
2022-10-17T23:06:15.725Z,10.80
2022-10-17T23:08:43.297Z,10.80
2022-10-17T23:11:10.480Z,10.80
2022-10-17T23:13:37.615Z,10.80
2022-10-17T23:16:04.677Z,10.70
2022-10-17T23:20:58.088Z,10.70
2022-10-17T23:23:24.957Z,10.80
2022-10-17T23:25:51.848Z,10.70
2022-10-17T23:28:18.722Z,10.60
2022-10-17T23:30:45.629Z,10.60
2022-10-17T23:33:14.049Z,10.60
2022-10-17T23:35:41.466Z,10.60
2022-10-17T23:38:09.013Z,10.60
2022-10-17T23:40:35.904Z,10.60
2022-10-17T23:43:04.048Z,10.60
2022-10-17T23:45:35.939Z,10.60
2022-10-17T23:48:04.910Z,10.60
2022-10-17T23:50:31.656Z,10.70
2022-10-17T23:52:58.396Z,10.70
2022-10-17T23:55:25.116Z,10.80
2022-10-17T23:57:51.859Z,10.70
